Airfield :
LOGIN :

Register | Disclaimer

   EN    FR    IT 

 










Legend :    VFR   Marginal VFR   IFR   Intensive IFR   Very Intensive IFR
Visi :
Ceiling :
>= 8 km
>= 3000ft
5 to 8 km
1000 to 3000 ft
1500m to 5 km
500 to 1000 ft
800 to 1500m
200 to 500 ft
< 800m
< 200 ft
Symbols :   Thunderstorms  Fog  Heavy snow  Heavy precipitations  Wind > 20 kt
SIGMETs :     Misc.  Thunderstorms  Icing  Turbulence  Mountain Waves  Volcanic Ashes







- Airport Elevation : 278 ft
- IATA code : RJK


LDRI - Rijeka

CURRENT METAR :
  • 251830Z 02004KT 310V060 CAVOK 13/01 Q1034

EXPIRED METARs :
  • 251800Z VRB02KT CAVOK 13/01 Q1034
  • 251730Z 06006KT CAVOK 15/01 Q1034
  • 251700Z 07006KT 030V150 CAVOK 15/01 Q1033
  • 251630Z 03010KT 330V060 9999 FEW043 15/02 Q1033
  • 251600Z 03008KT 350V070 9999 FEW043 16/02 Q1033
  • 251530Z 04012G22KT 360V100 9999 FEW040 16/01 Q1033

TAF TAF LDRI
Valid from the 25 at 18:00 until the 26 at 18:00 UTC


251725Z 2518/2618 06010KT CAVOK TX18/2613Z TN10/2603Z
TEMPO 2518/2606 VRB10KT
BECMG 2606/2608 VRB02KT
No reported NOTAMs for that airfield.
1 SIGMET reported for the Zagreb FIR (LDZO) :
 
Severe turbulence
LDZO SIGMET 5 VALID 251700/252100 LDZA
LDZO ZAGREB FIR SEV TURB FCST WI N4508 E01310 - N4527 E01416 - N4415 E01616 - N4238 E01833 - N4126 E01819 - N4508 E01310 SFC/6000FT STNR NC=



MET'MAP, your aeronautical weather chart ! - Copyright ORBIFLY December 2007 - Disclaimer

ORBIFLY MET'MAP TEAM :

Programming & Development : Alexandra Zaïnal
Concept & Development : Baudouin d'Aumeries
Co-Development & Prog : Marc-Olivier Méhu
Technical & hardware support : Manuel Goepfert

Contact : metmap@orbifly.com




SOURCES & CREDITS :

   NOAA